Time;durP1;ratioP1;P1;durP2;ratioP2;P2;SDS_P1;SDS_P2;PMS_P1;PMS_P2;Temp;Humidity;BMP_temperature;BMP_pressure;BME280_temperature;BME280_humidity;BME280_pressure;Samples;Min_cycle;Max_cycle;Signal;HPM_P1;HPM_P2
2023/03/01 00:03:48;;;;;;;9.55;6.20;;;;;;;;;;8222393;28;20038;-61
2023/03/01 00:07:48;;;;;;;9.13;6.60;;;;;;;;;;8220711;28;20386;-61
2023/03/01 00:11:48;;;;;;;10.18;6.80;;;;;;;;;;8220889;28;20034;-60
2023/03/01 00:15:48;;;;;;;11.23;7.10;;;;;;;;;;8223190;28;20724;-61
2023/03/01 00:19:48;;;;;;;10.15;6.88;;;;;;;;;;8221944;28;20196;-60
2023/03/01 00:23:49;;;;;;;8.77;6.80;;;;;;;;;;8222849;28;20292;-61
2023/03/01 00:27:49;;;;;;;8.80;6.63;;;;;;;;;;8223723;28;20391;-61
2023/03/01 00:31:49;;;;;;;12.00;7.45;;;;;;;;;;8225671;28;20034;-61
2023/03/01 00:35:49;;;;;;;10.27;7.18;;;;;;;;;;8224127;28;20057;-61
2023/03/01 00:39:50;;;;;;;11.45;7.03;;;;;;;;;;8218731;28;20027;-61
2023/03/01 00:43:50;;;;;;;13.25;7.28;;;;;;;;;;8220486;28;20564;-61
2023/03/01 00:47:51;;;;;;;14.20;7.43;;;;;;;;;;8218109;28;20069;-61
2023/03/01 00:51:51;;;;;;;12.80;7.80;;;;;;;;;;8224558;28;20030;-61
2023/03/01 00:55:51;;;;;;;11.27;7.47;;;;;;;;;;8221955;28;20030;-60
2023/03/01 00:59:54;;;;;;;10.18;6.68;;;;;;;;;;8221065;28;20027;-60
2023/03/01 01:03:56;;;;;;;10.40;6.78;;;;;;;;;;8216952;28;20038;-61
2023/03/01 01:07:56;;;;;;;10.25;7.32;;;;;;;;;;8215403;28;20043;-61
2023/03/01 01:11:56;;;;;;;11.18;7.32;;;;;;;;;;8219466;28;20645;-60
2023/03/01 01:16:00;;;;;;;10.00;6.78;;;;;;;;;;8218094;28;20329;-61
2023/03/01 01:20:00;;;;;;;11.57;7.23;;;;;;;;;;8220426;28;20066;-61
2023/03/01 01:24:02;;;;;;;14.18;7.30;;;;;;;;;;8220155;28;20073;-61
2023/03/01 01:28:02;;;;;;;9.73;6.43;;;;;;;;;;8219024;28;20442;-61
2023/03/01 01:32:02;;;;;;;11.77;6.83;;;;;;;;;;8219802;28;20037;-60
2023/03/01 01:36:03;;;;;;;10.73;6.85;;;;;;;;;;8219880;28;21275;-61
2023/03/01 01:40:04;;;;;;;8.85;6.22;;;;;;;;;;8217789;28;20047;-61
2023/03/01 01:44:19;;;;;;;11.65;7.45;;;;;;;;;;8221135;28;20112;-60
2023/03/01 01:48:21;;;;;;;13.52;7.32;;;;;;;;;;8217526;28;20038;-60
2023/03/01 01:52:34;;;;;;;10.60;7.05;;;;;;;;;;8219405;28;20030;-61
2023/03/01 01:56:36;;;;;;;11.18;6.60;;;;;;;;;;8220111;28;20034;-60
2023/03/01 02:00:36;;;;;;;11.93;7.38;;;;;;;;;;8220327;28;20088;-61
2023/03/01 02:04:37;;;;;;;10.85;6.82;;;;;;;;;;8217934;28;20108;-60
2023/03/01 02:08:38;;;;;;;10.27;6.95;;;;;;;;;;8217262;28;20030;-60
2023/03/01 02:12:39;;;;;;;9.10;7.07;;;;;;;;;;8220434;28;21258;-60
2023/03/01 02:16:39;;;;;;;8.27;6.20;;;;;;;;;;8218118;28;20422;-61
2023/03/01 02:20:58;;;;;;;12.82;7.28;;;;;;;;;;8218766;28;20381;-61
2023/03/01 02:25:18;;;;;;;11.85;6.55;;;;;;;;;;8217666;28;20165;-60
2023/03/01 02:29:18;;;;;;;10.85;6.75;;;;;;;;;;8219339;28;20688;-60
2023/03/01 02:33:18;;;;;;;8.85;6.45;;;;;;;;;;8218777;28;20038;-60
2023/03/01 02:37:24;;;;;;;10.50;6.95;;;;;;;;;;8217255;28;20030;-61
2023/03/01 02:41:26;;;;;;;9.32;6.13;;;;;;;;;;8221573;28;20148;-60
2023/03/01 02:45:26;;;;;;;11.68;6.50;;;;;;;;;;8224282;28;20034;-61
2023/03/01 02:49:28;;;;;;;10.25;7.00;;;;;;;;;;8226585;28;20754;-61
2023/03/01 02:53:35;;;;;;;14.63;7.65;;;;;;;;;;8222924;28;20026;-60
2023/03/01 02:57:37;;;;;;;12.73;7.75;;;;;;;;;;8226738;28;20149;-61
2023/03/01 03:01:38;;;;;;;12.73;7.45;;;;;;;;;;8225638;28;20042;-60
2023/03/01 03:05:38;;;;;;;10.43;7.47;;;;;;;;;;8225947;28;20076;-60
2023/03/01 03:09:38;;;;;;;12.45;7.30;;;;;;;;;;8221379;28;20308;-61
2023/03/01 03:13:47;;;;;;;11.63;7.72;;;;;;;;;;8225201;28;20061;-60
2023/03/01 03:17:48;;;;;;;13.95;7.70;;;;;;;;;;8222071;28;20043;-61
2023/03/01 03:21:49;;;;;;;12.43;8.10;;;;;;;;;;8225261;28;20342;-60
2023/03/01 03:25:50;;;;;;;11.43;7.60;;;;;;;;;;8220826;28;20025;-61
2023/03/01 03:29:50;;;;;;;12.30;8.18;;;;;;;;;;8218389;28;21057;-61
2023/03/01 03:33:50;;;;;;;13.48;8.35;;;;;;;;;;8222241;28;20038;-61
2023/03/01 03:38:03;;;;;;;17.60;9.60;;;;;;;;;;8220854;28;20259;-60
2023/03/01 03:42:03;;;;;;;16.55;9.32;;;;;;;;;;8222167;28;20274;-61
2023/03/01 03:46:05;;;;;;;15.75;8.60;;;;;;;;;;8224723;28;20346;-61
2023/03/01 03:50:05;;;;;;;14.95;8.45;;;;;;;;;;8222085;28;20049;-61
2023/03/01 03:54:05;;;;;;;13.60;8.57;;;;;;;;;;8225054;28;20031;-60
2023/03/01 03:58:07;;;;;;;14.80;8.93;;;;;;;;;;8220522;28;20454;-60
2023/03/01 04:02:08;;;;;;;11.95;7.97;;;;;;;;;;8221762;28;20717;-61
2023/03/01 04:06:08;;;;;;;15.30;9.13;;;;;;;;;;8227250;28;20065;-61
2023/03/01 04:10:10;;;;;;;14.60;9.10;;;;;;;;;;8221824;28;20022;-61
2023/03/01 04:14:10;;;;;;;15.00;9.30;;;;;;;;;;8223817;28;20030;-60
2023/03/01 04:18:15;;;;;;;13.43;8.63;;;;;;;;;;8218013;28;20111;-62
2023/03/01 04:22:18;;;;;;;16.30;9.25;;;;;;;;;;8223134;28;20023;-61
2023/03/01 04:26:19;;;;;;;12.65;8.98;;;;;;;;;;8221119;28;20034;-61
2023/03/01 04:30:20;;;;;;;13.77;8.70;;;;;;;;;;8220453;28;20022;-61
2023/03/01 04:34:20;;;;;;;13.75;9.07;;;;;;;;;;8253748;28;20103;-61
2023/03/01 04:38:21;;;;;;;14.43;8.98;;;;;;;;;;8256047;28;20271;-61
2023/03/01 04:42:21;;;;;;;12.77;9.23;;;;;;;;;;8254886;28;20021;-61
2023/03/01 04:46:21;;;;;;;15.20;9.77;;;;;;;;;;8244128;28;20053;-62
2023/03/01 04:50:23;;;;;;;15.35;9.98;;;;;;;;;;8221119;28;20391;-61
2023/03/01 04:54:23;;;;;;;15.85;10.23;;;;;;;;;;8218840;28;20136;-61
2023/03/01 04:58:24;;;;;;;15.32;9.93;;;;;;;;;;8214013;28;20068;-61
2023/03/01 05:02:24;;;;;;;15.45;9.05;;;;;;;;;;8219798;28;20070;-61
2023/03/01 05:06:25;;;;;;;12.60;9.23;;;;;;;;;;8220356;28;20137;-61
2023/03/01 05:10:26;;;;;;;17.52;9.55;;;;;;;;;;8215890;28;20026;-61
2023/03/01 05:14:26;;;;;;;15.95;9.60;;;;;;;;;;8219956;28;20026;-61
2023/03/01 05:18:27;;;;;;;20.20;9.80;;;;;;;;;;8219231;28;20044;-61
2023/03/01 05:22:28;;;;;;;16.98;10.52;;;;;;;;;;8219291;28;20124;-61
2023/03/01 05:26:29;;;;;;;18.08;9.45;;;;;;;;;;8218283;28;20038;-62
2023/03/01 05:30:33;;;;;;;17.15;9.52;;;;;;;;;;8220858;28;20030;-61
2023/03/01 05:34:35;;;;;;;13.00;8.75;;;;;;;;;;8221637;28;20026;-61
2023/03/01 05:38:35;;;;;;;17.17;10.00;;;;;;;;;;8220371;28;20042;-61
2023/03/01 05:42:36;;;;;;;14.82;9.95;;;;;;;;;;8220788;28;20026;-61
2023/03/01 05:46:36;;;;;;;16.83;9.52;;;;;;;;;;8216929;28;20042;-61
2023/03/01 05:50:39;;;;;;;14.40;10.43;;;;;;;;;;8216458;28;20034;-61
2023/03/01 05:54:39;;;;;;;15.77;10.23;;;;;;;;;;8219211;28;20375;-61
2023/03/01 05:58:39;;;;;;;18.45;10.95;;;;;;;;;;8220943;28;20522;-61
2023/03/01 06:02:39;;;;;;;18.65;10.73;;;;;;;;;;8219911;28;20046;-61
2023/03/01 06:06:39;;;;;;;18.98;10.65;;;;;;;;;;8220791;28;20061;-61
2023/03/01 06:10:40;;;;;;;17.00;10.35;;;;;;;;;;8211185;28;20392;-61
2023/03/01 06:14:40;;;;;;;18.13;10.40;;;;;;;;;;8211464;28;20018;-61
2023/03/01 06:18:41;;;;;;;15.88;10.25;;;;;;;;;;8217378;28;20065;-62
2023/03/01 06:22:41;;;;;;;16.73;10.13;;;;;;;;;;8218815;28;20041;-61
2023/03/01 06:26:41;;;;;;;18.17;10.57;;;;;;;;;;8218094;28;20030;-61
2023/03/01 06:30:42;;;;;;;16.30;10.23;;;;;;;;;;8210738;28;20037;-61
2023/03/01 06:34:42;;;;;;;16.30;10.25;;;;;;;;;;8214753;28;20036;-62
2023/03/01 06:38:43;;;;;;;17.77;10.18;;;;;;;;;;8212476;28;20034;-61
2023/03/01 06:42:46;;;;;;;15.27;10.25;;;;;;;;;;8218201;28;20539;-61
2023/03/01 06:46:47;;;;;;;17.23;10.50;;;;;;;;;;8216003;28;20038;-61
2023/03/01 06:50:47;;;;;;;17.60;10.82;;;;;;;;;;8216509;28;20033;-61
2023/03/01 06:54:47;;;;;;;16.98;10.65;;;;;;;;;;8215708;28;20096;-61
2023/03/01 06:58:48;;;;;;;15.57;10.60;;;;;;;;;;8214761;28;20038;-62
2023/03/01 07:02:48;;;;;;;15.30;10.43;;;;;;;;;;8219620;28;20042;-62
2023/03/01 07:06:54;;;;;;;13.27;9.40;;;;;;;;;;8207001;28;20040;-61
2023/03/01 07:10:57;;;;;;;16.95;10.82;;;;;;;;;;8216957;28;20030;-61
2023/03/01 07:14:57;;;;;;;15.32;9.85;;;;;;;;;;8220386;28;20026;-62
2023/03/01 07:18:57;;;;;;;16.83;10.30;;;;;;;;;;8211415;28;20046;-62
2023/03/01 07:22:58;;;;;;;15.65;10.43;;;;;;;;;;8219177;28;20444;-61
2023/03/01 07:26:58;;;;;;;17.77;10.75;;;;;;;;;;8218043;28;20061;-63
2023/03/01 07:31:02;;;;;;;14.52;10.27;;;;;;;;;;8211908;28;20169;-61
2023/03/01 07:35:02;;;;;;;15.50;10.02;;;;;;;;;;8208059;28;20632;-61
2023/03/01 07:39:03;;;;;;;15.88;9.77;;;;;;;;;;8209857;28;20062;-61
2023/03/01 07:43:03;;;;;;;13.85;9.23;;;;;;;;;;8211499;28;20395;-62
2023/03/01 07:47:03;;;;;;;16.15;8.88;;;;;;;;;;8214838;28;20119;-62
2023/03/01 07:51:05;;;;;;;15.23;9.15;;;;;;;;;;8214426;28;20034;-62
2023/03/01 07:55:05;;;;;;;13.02;8.30;;;;;;;;;;8210973;28;20154;-62
2023/03/01 07:59:05;;;;;;;15.95;8.77;;;;;;;;;;8214315;28;20072;-63
2023/03/01 08:03:06;;;;;;;11.50;8.27;;;;;;;;;;8211810;28;20037;-63
2023/03/01 08:07:06;;;;;;;12.40;7.93;;;;;;;;;;8215542;28;20220;-61
2023/03/01 08:11:07;;;;;;;11.35;8.13;;;;;;;;;;8210931;28;20569;-61
2023/03/01 08:15:07;;;;;;;13.88;8.38;;;;;;;;;;8214973;28;20034;-61
2023/03/01 08:19:08;;;;;;;12.73;8.40;;;;;;;;;;8212698;28;20441;-62
2023/03/01 08:23:08;;;;;;;12.38;8.07;;;;;;;;;;8213019;28;20033;-61
2023/03/01 08:27:09;;;;;;;9.65;7.68;;;;;;;;;;8217227;28;20057;-61
2023/03/01 08:31:24;;;;;;;11.10;8.48;;;;;;;;;;8214084;28;20497;-61
2023/03/01 08:35:24;;;;;;;10.02;7.97;;;;;;;;;;8211142;28;20054;-61
2023/03/01 08:39:24;;;;;;;12.05;8.18;;;;;;;;;;8212060;28;20162;-61
2023/03/01 08:43:25;;;;;;;10.90;8.53;;;;;;;;;;8213502;28;20169;-62
2023/03/01 08:47:26;;;;;;;12.40;8.45;;;;;;;;;;8212541;28;20350;-61
2023/03/01 08:51:26;;;;;;;12.95;8.05;;;;;;;;;;8212606;28;20026;-61
2023/03/01 08:55:26;;;;;;;11.20;8.47;;;;;;;;;;8213115;28;20208;-61
2023/03/01 08:59:26;;;;;;;15.07;8.27;;;;;;;;;;8213732;28;20773;-61
2023/03/01 09:03:27;;;;;;;11.47;8.60;;;;;;;;;;8211144;28;20533;-61
2023/03/01 09:07:30;;;;;;;11.68;8.50;;;;;;;;;;8210967;28;20483;-61
2023/03/01 09:11:30;;;;;;;15.53;10.13;;;;;;;;;;8210360;28;20033;-60
2023/03/01 09:15:30;;;;;;;13.23;9.43;;;;;;;;;;8212300;28;20463;-62
2023/03/01 09:19:31;;;;;;;13.60;9.55;;;;;;;;;;8210372;28;21032;-62
2023/03/01 09:23:31;;;;;;;13.50;10.02;;;;;;;;;;8211121;28;20034;-62
2023/03/01 09:27:31;;;;;;;15.63;10.20;;;;;;;;;;8213157;28;20030;-63
2023/03/01 09:31:31;;;;;;;14.27;10.27;;;;;;;;;;8211754;28;20448;-63
2023/03/01 09:35:31;;;;;;;14.88;9.85;;;;;;;;;;8211004;28;20018;-62
2023/03/01 09:39:32;;;;;;;16.42;10.57;;;;;;;;;;8208359;28;20517;-62
2023/03/01 09:43:46;;;;;;;16.07;10.90;;;;;;;;;;8213011;28;20025;-63
2023/03/01 09:47:48;;;;;;;15.30;10.02;;;;;;;;;;8211621;28;20331;-63
2023/03/01 09:51:59;;;;;;;17.63;11.65;;;;;;;;;;8207515;28;20079;-62
2023/03/01 09:56:05;;;;;;;17.38;11.10;;;;;;;;;;8211847;28;20069;-63
2023/03/01 10:00:08;;;;;;;17.52;10.85;;;;;;;;;;8211761;28;20022;-63
2023/03/01 10:04:08;;;;;;;16.42;10.98;;;;;;;;;;8211956;28;20109;-62
2023/03/01 10:08:25;;;;;;;17.75;10.95;;;;;;;;;;8211256;28;20115;-62
2023/03/01 10:12:27;;;;;;;15.77;10.48;;;;;;;;;;8211717;28;20031;-62
2023/03/01 10:16:33;;;;;;;16.92;10.73;;;;;;;;;;8208261;28;20125;-63
2023/03/01 10:20:41;;;;;;;18.52;10.98;;;;;;;;;;8209266;28;20022;-62
2023/03/01 10:24:42;;;;;;;17.42;10.93;;;;;;;;;;8210143;28;20037;-63
2023/03/01 10:29:03;;;;;;;16.52;10.65;;;;;;;;;;8209655;28;20027;-62
2023/03/01 10:33:08;;;;;;;16.63;10.70;;;;;;;;;;8209508;28;20089;-62
2023/03/01 10:37:14;;;;;;;16.23;11.18;;;;;;;;;;8209344;28;20117;-62
2023/03/01 10:41:14;;;;;;;13.88;10.48;;;;;;;;;;8206533;28;20022;-63
2023/03/01 10:45:30;;;;;;;21.02;12.95;;;;;;;;;;8210450;28;20040;-63
2023/03/01 10:49:31;;;;;;;15.43;11.38;;;;;;;;;;8207235;28;21442;-62
2023/03/01 10:53:33;;;;;;;15.68;11.52;;;;;;;;;;8209794;28;20600;-63
2023/03/01 10:57:36;;;;;;;17.10;11.35;;;;;;;;;;8203667;28;20038;-62
2023/03/01 11:01:36;;;;;;;17.25;11.05;;;;;;;;;;8196987;28;20038;-63
2023/03/01 11:05:37;;;;;;;17.88;10.50;;;;;;;;;;8213698;28;20029;-63
2023/03/01 11:09:38;;;;;;;17.70;11.38;;;;;;;;;;8208888;28;20535;-62
2023/03/01 11:13:49;;;;;;;17.17;11.27;;;;;;;;;;8215203;28;20052;-63
2023/03/01 11:17:50;;;;;;;18.00;11.07;;;;;;;;;;8209800;28;20058;-62
2023/03/01 11:21:54;;;;;;;17.77;11.02;;;;;;;;;;8204641;28;20030;-63
2023/03/01 11:25:55;;;;;;;19.95;12.18;;;;;;;;;;8213548;28;20305;-64
2023/03/01 11:30:05;;;;;;;16.48;11.00;;;;;;;;;;8212028;28;20290;-63
2023/03/01 11:34:11;;;;;;;18.10;11.57;;;;;;;;;;8215178;28;20042;-63
2023/03/01 11:38:21;;;;;;;17.20;11.80;;;;;;;;;;8213830;28;20022;-63
2023/03/01 11:42:28;;;;;;;18.75;11.35;;;;;;;;;;8217498;28;20152;-63
2023/03/01 11:46:31;;;;;;;19.10;10.98;;;;;;;;;;8214257;28;20046;-63
2023/03/01 11:50:39;;;;;;;17.60;11.35;;;;;;;;;;8212749;28;20076;-63
2023/03/01 11:54:39;;;;;;;18.73;11.70;;;;;;;;;;8213998;28;20363;-64
2023/03/01 11:58:58;;;;;;;20.10;12.02;;;;;;;;;;8212267;28;20045;-63
2023/03/01 12:03:22;;;;;;;18.38;11.73;;;;;;;;;;8214648;28;20069;-63
2023/03/01 12:07:31;;;;;;;20.73;11.87;;;;;;;;;;8213610;28;20046;-63
2023/03/01 12:11:39;;;;;;;20.20;11.65;;;;;;;;;;8214076;28;20747;-63
2023/03/01 12:15:47;;;;;;;21.05;12.00;;;;;;;;;;8210134;28;20076;-63
2023/03/01 12:19:49;;;;;;;18.95;12.40;;;;;;;;;;8212412;28;20522;-64
2023/03/01 12:24:02;;;;;;;17.90;12.23;;;;;;;;;;8212508;28;20037;-63
2023/03/01 12:28:04;;;;;;;21.25;12.65;;;;;;;;;;8212490;28;20037;-64
2023/03/01 12:32:10;;;;;;;16.67;11.45;;;;;;;;;;8212737;28;20486;-63
2023/03/01 12:36:20;;;;;;;17.02;11.60;;;;;;;;;;8209869;28;20046;-63
2023/03/01 12:40:26;;;;;;;17.88;11.20;;;;;;;;;;8211801;28;20156;-63
2023/03/01 12:44:44;;;;;;;18.30;12.43;;;;;;;;;;8211432;28;20027;-64
2023/03/01 12:49:03;;;;;;;18.55;11.55;;;;;;;;;;8208707;28;20042;-63
2023/03/01 12:53:04;;;;;;;16.35;12.15;;;;;;;;;;8208394;28;20023;-64
2023/03/01 12:57:19;;;;;;;17.25;11.57;;;;;;;;;;8212653;28;20053;-63
2023/03/01 13:01:23;;;;;;;22.70;11.23;;;;;;;;;;8210047;28;20168;-64
2023/03/01 13:05:26;;;;;;;19.52;11.73;;;;;;;;;;8216402;28;20053;-63
2023/03/01 13:09:27;;;;;;;17.90;11.65;;;;;;;;;;8214451;28;20233;-64
2023/03/01 13:13:28;;;;;;;16.95;11.60;;;;;;;;;;8217939;28;20025;-63
2023/03/01 13:17:30;;;;;;;17.70;11.55;;;;;;;;;;8215445;28;20046;-63
2023/03/01 13:21:31;;;;;;;14.13;10.20;;;;;;;;;;8215074;28;21138;-63
2023/03/01 13:25:31;;;;;;;22.05;10.55;;;;;;;;;;8213973;28;20031;-63
2023/03/01 13:29:43;;;;;;;19.27;10.40;;;;;;;;;;8213539;28;20493;-63
2023/03/01 13:33:45;;;;;;;15.00;10.07;;;;;;;;;;8213331;28;20282;-64
2023/03/01 13:37:45;;;;;;;12.98;9.68;;;;;;;;;;8214851;28;20038;-63
2023/03/01 13:41:50;;;;;;;14.77;10.05;;;;;;;;;;8215154;28;20141;-63
2023/03/01 13:45:51;;;;;;;13.65;9.70;;;;;;;;;;8211929;28;20475;-63
2023/03/01 13:49:59;;;;;;;14.02;9.70;;;;;;;;;;8215081;28;20033;-63
2023/03/01 13:53:59;;;;;;;14.38;9.55;;;;;;;;;;8212308;28;20034;-63
2023/03/01 13:58:01;;;;;;;15.52;9.52;;;;;;;;;;8214297;28;20030;-63
2023/03/01 14:02:01;;;;;;;15.30;9.30;;;;;;;;;;8212832;28;20157;-63
2023/03/01 14:06:06;;;;;;;11.48;8.48;;;;;;;;;;8214021;28;20124;-63
2023/03/01 14:10:07;;;;;;;11.85;8.20;;;;;;;;;;8213718;28;20034;-63
2023/03/01 14:14:13;;;;;;;13.95;8.55;;;;;;;;;;8217223;28;20034;-63
2023/03/01 14:18:25;;;;;;;12.85;8.60;;;;;;;;;;8213028;28;20381;-63
2023/03/01 14:22:30;;;;;;;10.50;7.15;;;;;;;;;;8214289;28;20120;-63
2023/03/01 14:26:31;;;;;;;12.63;7.70;;;;;;;;;;8214515;28;20289;-63
2023/03/01 14:30:37;;;;;;;12.45;7.47;;;;;;;;;;8212669;28;20035;-63
2023/03/01 14:34:42;;;;;;;11.70;7.22;;;;;;;;;;8212804;28;20409;-64
2023/03/01 14:38:43;;;;;;;10.77;7.00;;;;;;;;;;8215232;28;20129;-63
2023/03/01 14:42:44;;;;;;;10.35;6.93;;;;;;;;;;8220784;28;20526;-62
2023/03/01 14:46:44;;;;;;;11.50;7.47;;;;;;;;;;8217709;28;20046;-63
2023/03/01 14:50:45;;;;;;;12.10;7.05;;;;;;;;;;8221150;28;20295;-63
2023/03/01 14:54:47;;;;;;;11.95;7.30;;;;;;;;;;8219514;28;20906;-62
2023/03/01 14:58:51;;;;;;;11.10;6.90;;;;;;;;;;8216666;28;20117;-62
2023/03/01 15:02:52;;;;;;;;;;;;;;;;;;8219296;28;20042;-62
2023/03/01 15:06:53;;;;;;;11.30;7.03;;;;;;;;;;8219397;28;19924;-63
2023/03/01 15:10:58;;;;;;;14.23;7.00;;;;;;;;;;8214261;28;20567;-62
2023/03/01 15:14:59;;;;;;;10.25;6.50;;;;;;;;;;8211564;28;20470;-62
2023/03/01 15:19:04;;;;;;;11.13;6.90;;;;;;;;;;8213046;28;20042;-62
2023/03/01 15:23:04;;;;;;;8.40;6.45;;;;;;;;;;8218435;28;20042;-62
2023/03/01 15:27:06;;;;;;;13.38;7.20;;;;;;;;;;8224444;28;20932;-62
2023/03/01 15:31:34;;;;;;;12.00;6.20;;;;;;;;;;8221502;28;20038;-62
2023/03/01 15:35:42;;;;;;;10.23;6.50;;;;;;;;;;8213439;28;20578;-63
2023/03/01 15:39:43;;;;;;;13.25;5.93;;;;;;;;;;8212282;28;20069;-63
2023/03/01 15:43:46;;;;;;;9.07;6.50;;;;;;;;;;8214502;28;20096;-62
2023/03/01 15:47:50;;;;;;;12.60;6.75;;;;;;;;;;8210475;28;20042;-63
2023/03/01 15:51:52;;;;;;;10.02;6.60;;;;;;;;;;8212763;28;20096;-62
2023/03/01 15:55:53;;;;;;;8.68;6.15;;;;;;;;;;8212962;28;20566;-63
2023/03/01 15:59:53;;;;;;;12.82;6.78;;;;;;;;;;8214509;28;20048;-63
2023/03/01 16:03:54;;;;;;;9.45;6.30;;;;;;;;;;8212765;28;20443;-62
2023/03/01 16:07:54;;;;;;;14.00;6.72;;;;;;;;;;8214471;28;20054;-62
2023/03/01 16:11:54;;;;;;;8.27;6.00;;;;;;;;;;8213178;28;20335;-62
2023/03/01 16:15:54;;;;;;;11.25;7.03;;;;;;;;;;8211526;28;20281;-62
2023/03/01 16:19:54;;;;;;;9.20;6.30;;;;;;;;;;8212468;28;20142;-62
2023/03/01 16:23:54;;;;;;;9.13;5.90;;;;;;;;;;8213257;28;20692;-63
2023/03/01 16:27:55;;;;;;;10.25;6.60;;;;;;;;;;8212059;28;20117;-62
2023/03/01 16:31:56;;;;;;;9.95;6.50;;;;;;;;;;8210509;28;20035;-63
2023/03/01 16:35:56;;;;;;;9.55;6.00;;;;;;;;;;8210037;28;20125;-62
2023/03/01 16:39:56;;;;;;;8.50;6.65;;;;;;;;;;8201929;28;20363;-62
2023/03/01 16:43:56;;;;;;;9.82;6.03;;;;;;;;;;8206600;28;20032;-63
2023/03/01 16:47:57;;;;;;;11.15;6.43;;;;;;;;;;8207942;28;20065;-62
2023/03/01 16:51:58;;;;;;;8.60;6.00;;;;;;;;;;8197114;28;20044;-62
2023/03/01 16:55:58;;;;;;;8.98;6.38;;;;;;;;;;8207153;28;20077;-62
2023/03/01 16:59:58;;;;;;;10.80;6.43;;;;;;;;;;8206577;28;20030;-62
2023/03/01 17:03:59;;;;;;;12.32;6.05;;;;;;;;;;8208643;28;20620;-62
2023/03/01 17:07:59;;;;;;;8.57;5.75;;;;;;;;;;8210348;28;20228;-62
2023/03/01 17:11:59;;;;;;;10.68;5.93;;;;;;;;;;8210834;28;20322;-62
2023/03/01 17:16:01;;;;;;;10.45;5.78;;;;;;;;;;8213537;28;20132;-62
2023/03/01 17:20:02;;;;;;;10.80;6.40;;;;;;;;;;8215368;28;20117;-62
2023/03/01 17:24:03;;;;;;;9.48;5.88;;;;;;;;;;8209686;28;20057;-62
2023/03/01 17:28:03;;;;;;;12.20;6.27;;;;;;;;;;8210964;28;20061;-63
2023/03/01 17:32:03;;;;;;;11.55;6.55;;;;;;;;;;8211627;28;20277;-62
2023/03/01 17:36:04;;;;;;;11.45;6.25;;;;;;;;;;8213992;28;20034;-63
2023/03/01 17:40:05;;;;;;;9.18;6.25;;;;;;;;;;8211039;28;20034;-62
2023/03/01 17:44:05;;;;;;;8.93;6.20;;;;;;;;;;8208429;28;20057;-62
2023/03/01 17:48:05;;;;;;;10.85;6.32;;;;;;;;;;8208485;28;20113;-62
2023/03/01 17:52:06;;;;;;;11.88;6.75;;;;;;;;;;8210850;28;20185;-62
2023/03/01 17:56:07;;;;;;;11.65;6.40;;;;;;;;;;8208893;28;20450;-62
2023/03/01 18:00:11;;;;;;;12.30;6.90;;;;;;;;;;8207897;28;20022;-62
2023/03/01 18:04:11;;;;;;;;;;;;;;;;;;8208520;28;20034;-62
2023/03/01 18:08:12;;;;;;;10.57;6.65;;;;;;;;;;8209429;28;19917;-62
2023/03/01 18:12:12;;;;;;;10.15;5.72;;;;;;;;;;8204711;28;20029;-62
2023/03/01 18:16:13;;;;;;;10.13;6.38;;;;;;;;;;8210374;28;20385;-62
2023/03/01 18:20:14;;;;;;;11.93;6.60;;;;;;;;;;8209407;28;20250;-62
2023/03/01 18:24:15;;;;;;;9.98;6.18;;;;;;;;;;8207854;28;20027;-62
2023/03/01 18:28:15;;;;;;;11.02;6.72;;;;;;;;;;8209027;28;20114;-62
2023/03/01 18:32:15;;;;;;;11.37;6.63;;;;;;;;;;8207124;28;20096;-62
2023/03/01 18:36:17;;;;;;;10.32;6.20;;;;;;;;;;8208765;28;20590;-62
2023/03/01 18:40:17;;;;;;;11.02;6.38;;;;;;;;;;8207827;28;20056;-63
2023/03/01 18:44:17;;;;;;;11.40;7.20;;;;;;;;;;8208117;28;20051;-62
2023/03/01 18:48:18;;;;;;;11.18;6.70;;;;;;;;;;8208439;28;20493;-61
2023/03/01 18:52:18;;;;;;;13.02;7.10;;;;;;;;;;8209509;28;20451;-62
2023/03/01 18:56:18;;;;;;;10.93;6.20;;;;;;;;;;8210807;28;20061;-62
2023/03/01 19:00:18;;;;;;;12.50;6.67;;;;;;;;;;8205298;28;20030;-61
2023/03/01 19:04:19;;;;;;;11.07;7.00;;;;;;;;;;8206530;28;20285;-62
2023/03/01 19:08:19;;;;;;;10.35;6.53;;;;;;;;;;8207717;28;20342;-62
2023/03/01 19:12:19;;;;;;;12.40;6.70;;;;;;;;;;8206742;28;20052;-62
2023/03/01 19:16:21;;;;;;;8.95;6.45;;;;;;;;;;8208528;28;20339;-62
2023/03/01 19:20:21;;;;;;;12.15;7.18;;;;;;;;;;8207957;28;20034;-61
2023/03/01 19:24:21;;;;;;;10.73;7.40;;;;;;;;;;8214616;28;20026;-61
2023/03/01 19:28:21;;;;;;;10.52;6.68;;;;;;;;;;8214997;28;20029;-62
2023/03/01 19:32:21;;;;;;;12.23;7.55;;;;;;;;;;8214417;28;20756;-62
2023/03/01 19:36:27;;;;;;;11.23;7.30;;;;;;;;;;8216238;28;20486;-62
2023/03/01 19:40:28;;;;;;;10.55;7.47;;;;;;;;;;8214652;28;20038;-62
2023/03/01 19:44:28;;;;;;;11.35;7.13;;;;;;;;;;8214959;28;20037;-62
2023/03/01 19:48:28;;;;;;;11.23;6.97;;;;;;;;;;8212433;28;20093;-62
2023/03/01 19:52:28;;;;;;;12.73;7.22;;;;;;;;;;8215404;28;20023;-62
2023/03/01 19:56:30;;;;;;;14.05;7.25;;;;;;;;;;8213139;28;20068;-62
2023/03/01 20:00:30;;;;;;;14.13;7.93;;;;;;;;;;8212849;28;22204;-62
2023/03/01 20:04:30;;;;;;;13.00;7.20;;;;;;;;;;8213038;28;20268;-62
2023/03/01 20:08:31;;;;;;;13.02;7.22;;;;;;;;;;8210562;28;20022;-62
2023/03/01 20:12:31;;;;;;;12.40;7.82;;;;;;;;;;8211069;28;20022;-62
2023/03/01 20:16:31;;;;;;;15.82;7.00;;;;;;;;;;8210074;28;20635;-61
2023/03/01 20:20:31;;;;;;;13.05;7.90;;;;;;;;;;8208865;28;20022;-61
2023/03/01 20:24:32;;;;;;;12.73;8.15;;;;;;;;;;8212526;28;20093;-61
2023/03/01 20:28:33;;;;;;;12.05;7.72;;;;;;;;;;8210384;28;20031;-61
2023/03/01 20:32:34;;;;;;;14.13;7.70;;;;;;;;;;8213360;28;20554;-61
2023/03/01 20:36:36;;;;;;;11.82;7.43;;;;;;;;;;8214650;28;20424;-61
2023/03/01 20:40:36;;;;;;;12.98;7.72;;;;;;;;;;8208345;28;20603;-61
2023/03/01 20:44:41;;;;;;;12.13;7.53;;;;;;;;;;8213998;28;20018;-61
2023/03/01 20:48:42;;;;;;;13.65;8.30;;;;;;;;;;8211803;28;20987;-62
2023/03/01 20:52:42;;;;;;;15.82;7.93;;;;;;;;;;8212060;28;20034;-61
2023/03/01 20:56:43;;;;;;;17.27;8.52;;;;;;;;;;8211051;28;20045;-62
2023/03/01 21:00:43;;;;;;;14.02;8.07;;;;;;;;;;8210347;28;20161;-62
2023/03/01 21:04:44;;;;;;;12.80;7.30;;;;;;;;;;8210937;28;20642;-61
2023/03/01 21:08:44;;;;;;;14.18;7.47;;;;;;;;;;8210245;28;20033;-61
2023/03/01 21:12:44;;;;;;;11.07;7.38;;;;;;;;;;8205231;28;20029;-61
2023/03/01 21:16:44;;;;;;;14.57;8.18;;;;;;;;;;8210538;28;20064;-62
2023/03/01 21:20:44;;;;;;;12.57;7.75;;;;;;;;;;8212361;28;20078;-61
2023/03/01 21:24:45;;;;;;;13.15;7.40;;;;;;;;;;8211835;28;20668;-61
2023/03/01 21:28:45;;;;;;;11.00;6.95;;;;;;;;;;8209299;28;20030;-61
2023/03/01 21:32:45;;;;;;;13.55;7.60;;;;;;;;;;8213606;28;20038;-61
2023/03/01 21:36:45;;;;;;;12.75;7.78;;;;;;;;;;8211380;28;20030;-61
2023/03/01 21:40:46;;;;;;;12.20;7.22;;;;;;;;;;8212311;28;20144;-61
2023/03/01 21:44:46;;;;;;;14.55;8.35;;;;;;;;;;8212199;28;20438;-61
2023/03/01 21:48:46;;;;;;;11.57;7.32;;;;;;;;;;8211870;28;20743;-61
2023/03/01 21:52:47;;;;;;;14.30;7.68;;;;;;;;;;8217319;28;20018;-61
2023/03/01 21:56:47;;;;;;;12.65;7.28;;;;;;;;;;8215502;28;20236;-61
2023/03/01 22:00:48;;;;;;;11.60;6.80;;;;;;;;;;8213939;28;20039;-61
2023/03/01 22:04:51;;;;;;;14.27;7.25;;;;;;;;;;8212115;28;20536;-61
2023/03/01 22:09:06;;;;;;;12.48;7.38;;;;;;;;;;8214287;28;20466;-61
2023/03/01 22:13:06;;;;;;;13.23;8.00;;;;;;;;;;8215353;28;20029;-61
2023/03/01 22:17:06;;;;;;;14.35;8.38;;;;;;;;;;8213367;28;20547;-61
2023/03/01 22:21:07;;;;;;;13.40;7.78;;;;;;;;;;8211736;28;20109;-61
2023/03/01 22:25:07;;;;;;;13.23;7.82;;;;;;;;;;8211478;28;20036;-61
2023/03/01 22:29:09;;;;;;;11.65;7.78;;;;;;;;;;8205420;28;20026;-61
2023/03/01 22:33:09;;;;;;;11.20;7.45;;;;;;;;;;8211902;28;20046;-61
2023/03/01 22:37:09;;;;;;;13.55;8.32;;;;;;;;;;8211056;28;20424;-61
2023/03/01 22:41:10;;;;;;;12.73;7.70;;;;;;;;;;8209642;28;20550;-61
2023/03/01 22:45:10;;;;;;;13.98;8.40;;;;;;;;;;8212238;28;20034;-61
2023/03/01 22:49:10;;;;;;;11.15;7.50;;;;;;;;;;8210944;28;20558;-61
2023/03/01 22:53:11;;;;;;;13.47;8.13;;;;;;;;;;8210898;28;20018;-61
2023/03/01 22:57:11;;;;;;;14.70;9.20;;;;;;;;;;8213529;28;20371;-61
2023/03/01 23:01:13;;;;;;;14.15;8.13;;;;;;;;;;8217287;28;20038;-61
2023/03/01 23:05:13;;;;;;;17.20;8.52;;;;;;;;;;8217539;28;20054;-61
2023/03/01 23:09:15;;;;;;;12.18;7.90;;;;;;;;;;8218555;28;20029;-61
2023/03/01 23:13:16;;;;;;;13.30;8.38;;;;;;;;;;8217598;28;20156;-61
2023/03/01 23:17:16;;;;;;;12.65;8.75;;;;;;;;;;8218354;28;20098;-61
2023/03/01 23:21:17;;;;;;;14.98;7.88;;;;;;;;;;8218755;28;20561;-61
2023/03/01 23:25:17;;;;;;;14.23;8.25;;;;;;;;;;8219647;28;20581;-61
2023/03/01 23:29:18;;;;;;;14.07;8.82;;;;;;;;;;8216397;28;20023;-61
2023/03/01 23:33:18;;;;;;;15.65;8.23;;;;;;;;;;8214612;28;20146;-62
2023/03/01 23:37:18;;;;;;;16.15;8.70;;;;;;;;;;8215920;28;20034;-62
2023/03/01 23:41:20;;;;;;;12.98;7.38;;;;;;;;;;8216698;28;20065;-62
2023/03/01 23:45:20;;;;;;;12.70;8.50;;;;;;;;;;8215885;28;20021;-62
2023/03/01 23:49:21;;;;;;;12.40;7.47;;;;;;;;;;8216616;28;20038;-62